DLH35X EDDF-EGLL
Flight info
| Callsign | DLH35X |
|---|---|
| Flight time | 1h 10m |
| Altitude | 38000 |
| Route | OBOKA3W OBOKA Z29 TORNU DCT BREDA DCT ABNED L980 LOGAN |
| Aircraft | A346/H-SDE2E3FGHIJ3J4J5M1RWXY/LB1D1 |
Departure
| Time | 2026-04-16 13:29 |
|---|---|
| Airport | Frankfurt Main Airport (EDDF) |
Arrival
| Time | 2026-04-16 14:40 |
|---|---|
| Airport | London Heathrow Airport (EGLL) |
| Time | Latitude | Longitude | Altitude | Speed | Heading |
|---|---|---|---|---|---|
| 2026-04-16 12:45 | 50.04670 | 8.56047 | 364 ft | 0 kts | 340° |
| 2026-04-16 13:18 | 50.04658 | 8.56054 | 364 ft | 4 kts | 341° |
| 2026-04-16 13:18 | 50.04632 | 8.56068 | 368 ft | 4 kts | 339° |
| 2026-04-16 13:19 | 50.04609 | 8.56085 | 369 ft | 4 kts | 327° |
| 2026-04-16 13:19 | 50.04594 | 8.56107 | 368 ft | 4 kts | 295° |
| 2026-04-16 13:19 | 50.04592 | 8.56119 | 370 ft | 2 kts | 251° |
| 2026-04-16 13:19 | 50.04589 | 8.56106 | 368 ft | 4 kts | 249° |
| 2026-04-16 13:20 | 50.04580 | 8.56071 | 367 ft | 1 kts | 250° |
| 2026-04-16 13:20 | 50.04579 | 8.56070 | 368 ft | 0 kts | 250° |
| 2026-04-16 13:22 | 50.04579 | 8.56069 | 368 ft | 1 kts | 250° |
| 2026-04-16 13:22 | 50.04571 | 8.56034 | 367 ft | 6 kts | 250° |
| 2026-04-16 13:23 | 50.04540 | 8.55969 | 367 ft | 9 kts | 209° |
| 2026-04-16 13:23 | 50.04472 | 8.55930 | 369 ft | 12 kts | 198° |
| 2026-04-16 13:23 | 50.04384 | 8.55911 | 369 ft | 14 kts | 178° |
| 2026-04-16 13:23 | 50.04296 | 8.55955 | 368 ft | 9 kts | 159° |
| 2026-04-16 13:24 | 50.04232 | 8.55931 | 366 ft | 9 kts | 214° |
| 2026-04-16 13:24 | 50.04173 | 8.55925 | 365 ft | 11 kts | 162° |
| 2026-04-16 13:24 | 50.04099 | 8.55968 | 364 ft | 8 kts | 159° |
| 2026-04-16 13:24 | 50.04071 | 8.56042 | 365 ft | 10 kts | 84° |
| 2026-04-16 13:25 | 50.04099 | 8.56162 | 368 ft | 13 kts | 69° |
| 2026-04-16 13:25 | 50.04133 | 8.56304 | 362 ft | 15 kts | 70° |
| 2026-04-16 13:25 | 50.04171 | 8.56466 | 370 ft | 17 kts | 69° |
| 2026-04-16 13:25 | 50.04216 | 8.56649 | 368 ft | 19 kts | 69° |
| 2026-04-16 13:26 | 50.04263 | 8.56848 | 372 ft | 20 kts | 70° |
| 2026-04-16 13:26 | 50.04314 | 8.57067 | 372 ft | 22 kts | 69° |
| 2026-04-16 13:26 | 50.04371 | 8.57303 | 375 ft | 24 kts | 69° |
| 2026-04-16 13:26 | 50.04431 | 8.57556 | 375 ft | 26 kts | 70° |
| 2026-04-16 13:27 | 50.04487 | 8.57788 | 375 ft | 19 kts | 69° |
| 2026-04-16 13:27 | 50.04538 | 8.58000 | 375 ft | 22 kts | 70° |
| 2026-04-16 13:27 | 50.04595 | 8.58242 | 378 ft | 24 kts | 70° |
| 2026-04-16 13:27 | 50.04646 | 8.58456 | 380 ft | 14 kts | 70° |
| 2026-04-16 13:28 | 50.04636 | 8.58555 | 381 ft | 11 kts | 141° |
| 2026-04-16 13:28 | 50.04559 | 8.58609 | 379 ft | 13 kts | 167° |
| 2026-04-16 13:28 | 50.04480 | 8.58556 | 382 ft | 14 kts | 239° |
| 2026-04-16 13:28 | 50.04403 | 8.58234 | 380 ft | 62 kts | 250° |
| 2026-04-16 13:29 | 50.04175 | 8.57281 | 377 ft | 123 kts | 250° |
| 2026-04-16 13:29 | 50.03813 | 8.55761 | 379 ft | 171 kts | 249° |
| 2026-04-16 13:29 | 50.03405 | 8.53982 | 940 ft | 176 kts | 249° |
| 2026-04-16 13:29 | 50.02971 | 8.52129 | 1449 ft | 192 kts | 248° |
| 2026-04-16 13:30 | 50.02382 | 8.50204 | 2230 ft | 198 kts | 237° |
| 2026-04-16 13:30 | 50.01414 | 8.48736 | 3117 ft | 199 kts | 213° |
| 2026-04-16 13:30 | 50.00112 | 8.47983 | 3840 ft | 203 kts | 193° |
| 2026-04-16 13:30 | 49.98710 | 8.47635 | 4453 ft | 205 kts | 189° |
| 2026-04-16 13:31 | 49.97280 | 8.47341 | 4946 ft | 210 kts | 189° |
| 2026-04-16 13:31 | 49.95839 | 8.46930 | 5440 ft | 212 kts | 195° |
| 2026-04-16 13:31 | 49.94387 | 8.46306 | 5790 ft | 223 kts | 198° |
| 2026-04-16 13:31 | 49.92845 | 8.45595 | 6107 ft | 240 kts | 200° |
| 2026-04-16 13:32 | 49.91365 | 8.44305 | 6582 ft | 248 kts | 226° |
| 2026-04-16 13:32 | 49.90352 | 8.42215 | 7349 ft | 245 kts | 240° |
| 2026-04-16 13:32 | 49.89481 | 8.39946 | 8126 ft | 246 kts | 240° |
| 2026-04-16 13:32 | 49.88773 | 8.37516 | 8898 ft | 249 kts | 256° |
| 2026-04-16 13:33 | 49.88588 | 8.34820 | 9621 ft | 258 kts | 272° |
| 2026-04-16 13:33 | 49.88721 | 8.31948 | 10176 ft | 274 kts | 275° |
| 2026-04-16 13:33 | 49.88930 | 8.28952 | 10726 ft | 287 kts | 280° |
| 2026-04-16 13:33 | 49.89548 | 8.25911 | 11137 ft | 305 kts | 294° |
| 2026-04-16 13:34 | 49.90683 | 8.23019 | 11519 ft | 323 kts | 304° |
| 2026-04-16 13:34 | 49.92057 | 8.20140 | 11891 ft | 341 kts | 306° |
| 2026-04-16 13:34 | 49.93584 | 8.17227 | 12426 ft | 353 kts | 310° |
| 2026-04-16 13:34 | 49.95268 | 8.14498 | 13258 ft | 356 kts | 314° |
| 2026-04-16 13:35 | 49.97116 | 8.11920 | 14226 ft | 358 kts | 317° |
| 2026-04-16 13:35 | 49.99011 | 8.09384 | 15002 ft | 361 kts | 317° |
| 2026-04-16 13:35 | 50.00923 | 8.06838 | 15690 ft | 364 kts | 317° |
| 2026-04-16 13:35 | 50.02858 | 8.04258 | 16402 ft | 368 kts | 317° |
| 2026-04-16 13:36 | 50.04808 | 8.01653 | 17146 ft | 371 kts | 317° |
| 2026-04-16 13:36 | 50.06769 | 7.99025 | 17969 ft | 374 kts | 317° |
| 2026-04-16 13:36 | 50.08751 | 7.96366 | 18689 ft | 378 kts | 317° |
| 2026-04-16 13:36 | 50.10757 | 7.93670 | 19327 ft | 382 kts | 317° |
| 2026-04-16 13:37 | 50.12748 | 7.90993 | 19974 ft | 385 kts | 317° |
| 2026-04-16 13:37 | 50.14783 | 7.88252 | 20653 ft | 388 kts | 317° |
| 2026-04-16 13:37 | 50.16831 | 7.85490 | 21364 ft | 390 kts | 317° |
| 2026-04-16 13:37 | 50.18888 | 7.82712 | 22065 ft | 393 kts | 317° |
| 2026-04-16 13:38 | 50.20945 | 7.79875 | 22737 ft | 395 kts | 314° |
| 2026-04-16 13:38 | 50.22904 | 7.76850 | 23421 ft | 397 kts | 312° |
| 2026-04-16 13:38 | 50.24842 | 7.73752 | 24034 ft | 400 kts | 311° |
| 2026-04-16 13:38 | 50.26691 | 7.70480 | 24567 ft | 402 kts | 308° |
| 2026-04-16 13:39 | 50.28490 | 7.67116 | 25106 ft | 405 kts | 308° |
| 2026-04-16 13:39 | 50.30295 | 7.63780 | 25642 ft | 408 kts | 308° |
| 2026-04-16 13:39 | 50.32155 | 7.60402 | 26181 ft | 411 kts | 308° |
| 2026-04-16 13:39 | 50.34039 | 7.57013 | 26709 ft | 414 kts | 308° |
| 2026-04-16 13:40 | 50.35937 | 7.53608 | 27245 ft | 417 kts | 308° |
| 2026-04-16 13:40 | 50.37854 | 7.50168 | 27763 ft | 420 kts | 308° |
| 2026-04-16 13:40 | 50.39781 | 7.46711 | 28279 ft | 423 kts | 308° |
| 2026-04-16 13:40 | 50.41722 | 7.43222 | 28809 ft | 425 kts | 308° |
| 2026-04-16 13:41 | 50.43670 | 7.39713 | 29336 ft | 427 kts | 308° |
| 2026-04-16 13:41 | 50.45603 | 7.36225 | 29864 ft | 430 kts | 308° |
| 2026-04-16 13:41 | 50.47565 | 7.32679 | 30441 ft | 430 kts | 308° |
| 2026-04-16 13:41 | 50.49517 | 7.29148 | 31087 ft | 426 kts | 308° |
| 2026-04-16 13:42 | 50.51448 | 7.25648 | 31815 ft | 421 kts | 308° |
| 2026-04-16 13:42 | 50.53351 | 7.22196 | 32568 ft | 415 kts | 308° |
| 2026-04-16 13:42 | 50.55235 | 7.18777 | 33273 ft | 411 kts | 309° |
| 2026-04-16 13:42 | 50.57095 | 7.15394 | 33990 ft | 406 kts | 309° |
| 2026-04-16 13:43 | 50.58934 | 7.12047 | 34621 ft | 402 kts | 309° |
| 2026-04-16 13:43 | 50.60737 | 7.08763 | 35071 ft | 401 kts | 309° |
| 2026-04-16 13:43 | 50.62563 | 7.05431 | 35433 ft | 402 kts | 309° |
| 2026-04-16 13:43 | 50.64393 | 7.02089 | 35784 ft | 403 kts | 309° |
| 2026-04-16 13:44 | 50.66226 | 6.98736 | 36124 ft | 404 kts | 309° |
| 2026-04-16 13:44 | 50.68058 | 6.95383 | 36539 ft | 403 kts | 308° |
| 2026-04-16 13:44 | 50.69891 | 6.92023 | 36828 ft | 405 kts | 308° |
| 2026-04-16 13:44 | 50.71733 | 6.88637 | 37048 ft | 408 kts | 308° |
| 2026-04-16 13:45 | 50.73586 | 6.85225 | 37282 ft | 410 kts | 308° |
| 2026-04-16 13:45 | 50.75448 | 6.81795 | 37536 ft | 412 kts | 308° |
| 2026-04-16 13:45 | 50.77319 | 6.78349 | 37775 ft | 414 kts | 308° |
| 2026-04-16 13:45 | 50.79175 | 6.74934 | 37996 ft | 415 kts | 308° |
| 2026-04-16 13:46 | 50.81061 | 6.71460 | 38190 ft | 418 kts | 308° |
| 2026-04-16 13:46 | 50.84857 | 6.64454 | 38207 ft | 419 kts | 308° |
| 2026-04-16 13:47 | 50.88650 | 6.57436 | 38213 ft | 419 kts | 308° |
| 2026-04-16 13:47 | 50.92431 | 6.50423 | 38215 ft | 417 kts | 308° |
| 2026-04-16 13:48 | 50.96173 | 6.43461 | 38204 ft | 417 kts | 308° |
| 2026-04-16 13:48 | 50.99937 | 6.36439 | 38225 ft | 417 kts | 308° |
| 2026-04-16 13:49 | 51.03695 | 6.29410 | 38201 ft | 417 kts | 308° |
| 2026-04-16 13:49 | 51.07446 | 6.22368 | 38217 ft | 417 kts | 307° |
| 2026-04-16 13:50 | 51.10844 | 6.14907 | 38210 ft | 416 kts | 301° |
| 2026-04-16 13:50 | 51.13602 | 6.06899 | 38211 ft | 415 kts | 294° |
| 2026-04-16 13:51 | 51.15727 | 5.98350 | 38206 ft | 415 kts | 288° |
| 2026-04-16 13:51 | 51.17521 | 5.89611 | 38210 ft | 414 kts | 290° |
| 2026-04-16 13:52 | 51.19712 | 5.81101 | 38214 ft | 415 kts | 294° |
| 2026-04-16 13:52 | 51.22401 | 5.72933 | 38206 ft | 416 kts | 299° |
| 2026-04-16 13:53 | 51.25263 | 5.64993 | 38199 ft | 414 kts | 292° |
| 2026-04-16 13:53 | 51.27003 | 5.56234 | 38207 ft | 414 kts | 285° |
| 2026-04-16 13:54 | 51.28515 | 5.47355 | 38215 ft | 414 kts | 285° |
| 2026-04-16 13:54 | 51.30024 | 5.38477 | 38212 ft | 414 kts | 285° |
| 2026-04-16 13:55 | 51.31523 | 5.29650 | 38215 ft | 414 kts | 285° |
| 2026-04-16 13:55 | 51.33026 | 5.20770 | 38210 ft | 413 kts | 285° |
| 2026-04-16 13:56 | 51.34521 | 5.11892 | 38212 ft | 412 kts | 285° |
| 2026-04-16 13:56 | 51.36009 | 5.03018 | 38209 ft | 412 kts | 285° |
| 2026-04-16 13:57 | 51.37489 | 4.94145 | 38209 ft | 412 kts | 285° |
| 2026-04-16 13:57 | 51.38962 | 4.85260 | 38220 ft | 412 kts | 285° |
| 2026-04-16 13:58 | 51.41130 | 4.71967 | 38212 ft | 412 kts | 284° |
| 2026-04-16 13:58 | 51.42547 | 4.63052 | 38221 ft | 412 kts | 284° |
| 2026-04-16 13:59 | 51.43959 | 4.54132 | 38217 ft | 412 kts | 284° |
| 2026-04-16 13:59 | 51.45357 | 4.45270 | 38213 ft | 412 kts | 284° |
| 2026-04-16 14:00 | 51.46758 | 4.36339 | 38213 ft | 412 kts | 284° |
| 2026-04-16 14:00 | 51.48153 | 4.27407 | 38211 ft | 412 kts | 284° |
| 2026-04-16 14:01 | 51.49541 | 4.18472 | 38204 ft | 412 kts | 284° |
| 2026-04-16 14:01 | 51.50924 | 4.09523 | 38221 ft | 412 kts | 284° |
| 2026-04-16 14:02 | 51.52290 | 4.00626 | 38217 ft | 412 kts | 284° |
| 2026-04-16 14:02 | 51.53657 | 3.91672 | 38215 ft | 412 kts | 284° |
| 2026-04-16 14:03 | 51.55018 | 3.82711 | 38219 ft | 412 kts | 283° |
| 2026-04-16 14:03 | 51.56370 | 3.73764 | 38218 ft | 408 kts | 283° |
| 2026-04-16 14:04 | 51.57018 | 3.69455 | 38212 ft | 394 kts | 283° |
| 2026-04-16 14:04 | 51.57650 | 3.65242 | 38210 ft | 381 kts | 283° |
| 2026-04-16 14:04 | 51.58895 | 3.56914 | 38216 ft | 380 kts | 283° |
| 2026-04-16 14:05 | 51.60119 | 3.48679 | 38100 ft | 378 kts | 283° |
| 2026-04-16 14:05 | 51.60729 | 3.44560 | 37658 ft | 377 kts | 283° |
| 2026-04-16 14:05 | 51.61334 | 3.40459 | 37206 ft | 375 kts | 283° |
| 2026-04-16 14:06 | 51.61937 | 3.36372 | 36700 ft | 373 kts | 283° |
| 2026-04-16 14:06 | 51.62523 | 3.32400 | 36469 ft | 365 kts | 283° |
| 2026-04-16 14:06 | 51.63099 | 3.28468 | 36252 ft | 356 kts | 283° |
| 2026-04-16 14:06 | 51.63665 | 3.24591 | 36247 ft | 355 kts | 283° |
| 2026-04-16 14:07 | 51.63875 | 3.16677 | 36229 ft | 363 kts | 258° |
| 2026-04-16 14:07 | 51.62887 | 3.12889 | 36228 ft | 373 kts | 244° |
| 2026-04-16 14:07 | 51.61208 | 3.09623 | 36231 ft | 387 kts | 229° |
| 2026-04-16 14:08 | 51.58938 | 3.07141 | 36232 ft | 403 kts | 214° |
| 2026-04-16 14:08 | 51.56271 | 3.05683 | 36242 ft | 420 kts | 199° |
| 2026-04-16 14:08 | 51.50367 | 3.04771 | 36230 ft | 429 kts | 192° |
| 2026-04-16 14:09 | 51.44417 | 3.04149 | 36219 ft | 422 kts | 200° |
| 2026-04-16 14:09 | 51.41778 | 3.02559 | 36211 ft | 396 kts | 223° |
| 2026-04-16 14:09 | 51.39866 | 2.99581 | 36232 ft | 380 kts | 243° |
| 2026-04-16 14:10 | 51.37313 | 2.92056 | 36231 ft | 388 kts | 256° |
| 2026-04-16 14:10 | 51.36575 | 2.87850 | 36069 ft | 398 kts | 261° |
| 2026-04-16 14:10 | 51.36150 | 2.83501 | 35822 ft | 402 kts | 267° |
| 2026-04-16 14:11 | 51.36071 | 2.79024 | 35569 ft | 402 kts | 273° |
| 2026-04-16 14:11 | 51.36351 | 2.74575 | 35267 ft | 401 kts | 279° |
| 2026-04-16 14:11 | 51.36987 | 2.70235 | 34855 ft | 399 kts | 286° |
| 2026-04-16 14:11 | 51.37964 | 2.66083 | 34339 ft | 398 kts | 292° |
| 2026-04-16 14:12 | 51.39246 | 2.62142 | 33726 ft | 399 kts | 296° |
| 2026-04-16 14:12 | 51.40599 | 2.58268 | 33143 ft | 397 kts | 296° |
| 2026-04-16 14:12 | 51.41936 | 2.54469 | 32584 ft | 396 kts | 296° |
| 2026-04-16 14:12 | 51.43289 | 2.50649 | 32152 ft | 391 kts | 296° |
| 2026-04-16 14:13 | 51.44625 | 2.46886 | 31814 ft | 384 kts | 297° |
| 2026-04-16 14:13 | 51.45939 | 2.43191 | 31493 ft | 379 kts | 297° |
| 2026-04-16 14:13 | 51.47237 | 2.39544 | 31172 ft | 373 kts | 296° |
| 2026-04-16 14:13 | 51.48517 | 2.35949 | 30849 ft | 368 kts | 296° |
| 2026-04-16 14:14 | 51.49778 | 2.32401 | 30546 ft | 363 kts | 296° |
| 2026-04-16 14:14 | 51.51020 | 2.28897 | 30220 ft | 359 kts | 296° |
| 2026-04-16 14:14 | 51.52234 | 2.25469 | 29888 ft | 359 kts | 296° |
| 2026-04-16 14:14 | 51.53486 | 2.21924 | 29568 ft | 370 kts | 296° |
| 2026-04-16 14:15 | 51.54765 | 2.18297 | 29244 ft | 374 kts | 296° |
| 2026-04-16 14:15 | 51.56051 | 2.14656 | 28930 ft | 374 kts | 296° |
| 2026-04-16 14:15 | 51.57333 | 2.11021 | 28609 ft | 374 kts | 296° |
| 2026-04-16 14:15 | 51.58614 | 2.07386 | 28297 ft | 373 kts | 296° |
| 2026-04-16 14:16 | 51.59893 | 2.03748 | 27993 ft | 372 kts | 296° |
| 2026-04-16 14:16 | 51.61167 | 2.00121 | 27669 ft | 372 kts | 296° |
| 2026-04-16 14:16 | 51.62434 | 1.96506 | 27366 ft | 371 kts | 296° |
| 2026-04-16 14:16 | 51.63684 | 1.92938 | 27060 ft | 370 kts | 296° |
| 2026-04-16 14:17 | 51.64946 | 1.89334 | 26728 ft | 368 kts | 296° |
| 2026-04-16 14:17 | 51.66198 | 1.85748 | 26365 ft | 366 kts | 296° |
| 2026-04-16 14:17 | 51.67441 | 1.82183 | 25977 ft | 364 kts | 296° |
| 2026-04-16 14:17 | 51.68676 | 1.78634 | 25613 ft | 361 kts | 296° |
| 2026-04-16 14:18 | 51.69884 | 1.75164 | 25544 ft | 348 kts | 296° |
| 2026-04-16 14:18 | 51.71046 | 1.71822 | 25463 ft | 335 kts | 296° |
| 2026-04-16 14:18 | 51.72168 | 1.68590 | 25377 ft | 324 kts | 295° |
| 2026-04-16 14:18 | 51.73292 | 1.65330 | 25288 ft | 344 kts | 295° |
| 2026-04-16 14:19 | 51.74224 | 1.61744 | 25180 ft | 357 kts | 282° |
| 2026-04-16 14:19 | 51.74481 | 1.57742 | 25046 ft | 361 kts | 267° |
| 2026-04-16 14:19 | 51.74259 | 1.53733 | 24661 ft | 357 kts | 264° |
| 2026-04-16 14:19 | 51.74010 | 1.49745 | 24155 ft | 357 kts | 264° |
| 2026-04-16 14:20 | 51.73757 | 1.45754 | 23426 ft | 357 kts | 264° |
| 2026-04-16 14:20 | 51.73503 | 1.41782 | 22802 ft | 354 kts | 264° |
| 2026-04-16 14:20 | 51.73248 | 1.37853 | 22181 ft | 350 kts | 264° |
| 2026-04-16 14:20 | 51.72993 | 1.33950 | 21528 ft | 348 kts | 263° |
| 2026-04-16 14:21 | 51.72742 | 1.30126 | 20943 ft | 345 kts | 263° |
| 2026-04-16 14:21 | 51.72488 | 1.26287 | 20405 ft | 344 kts | 263° |
| 2026-04-16 14:21 | 51.72234 | 1.22457 | 19881 ft | 342 kts | 263° |
| 2026-04-16 14:21 | 51.71980 | 1.18633 | 19399 ft | 343 kts | 263° |
| 2026-04-16 14:22 | 51.71723 | 1.14804 | 18935 ft | 341 kts | 263° |
| 2026-04-16 14:22 | 51.71468 | 1.11014 | 18551 ft | 339 kts | 263° |
| 2026-04-16 14:22 | 51.71213 | 1.07240 | 18088 ft | 337 kts | 263° |
| 2026-04-16 14:22 | 51.70957 | 1.03493 | 17615 ft | 335 kts | 263° |
| 2026-04-16 14:23 | 51.70699 | 0.99767 | 17147 ft | 333 kts | 263° |
| 2026-04-16 14:23 | 51.70451 | 0.96120 | 16747 ft | 328 kts | 263° |
| 2026-04-16 14:23 | 51.70203 | 0.92440 | 16468 ft | 331 kts | 263° |
| 2026-04-16 14:23 | 51.69947 | 0.88760 | 16031 ft | 327 kts | 263° |
| 2026-04-16 14:24 | 51.69693 | 0.85128 | 15204 ft | 324 kts | 263° |
| 2026-04-16 14:24 | 51.69441 | 0.81537 | 14503 ft | 319 kts | 263° |
| 2026-04-16 14:24 | 51.69192 | 0.78009 | 13736 ft | 315 kts | 263° |
| 2026-04-16 14:24 | 51.68945 | 0.74509 | 12890 ft | 312 kts | 263° |
| 2026-04-16 14:25 | 51.68699 | 0.71054 | 12411 ft | 308 kts | 263° |
| 2026-04-16 14:25 | 51.68458 | 0.67650 | 12118 ft | 302 kts | 263° |
| 2026-04-16 14:25 | 51.68223 | 0.64361 | 11753 ft | 295 kts | 263° |
| 2026-04-16 14:25 | 51.67990 | 0.61104 | 11359 ft | 289 kts | 262° |
| 2026-04-16 14:26 | 51.67761 | 0.57929 | 11013 ft | 281 kts | 262° |
| 2026-04-16 14:26 | 51.67537 | 0.54833 | 10645 ft | 275 kts | 262° |
| 2026-04-16 14:26 | 51.67315 | 0.51790 | 10269 ft | 271 kts | 262° |
| 2026-04-16 14:26 | 51.67098 | 0.48790 | 9919 ft | 268 kts | 262° |
| 2026-04-16 14:27 | 51.66879 | 0.45804 | 9565 ft | 267 kts | 262° |
| 2026-04-16 14:27 | 51.66661 | 0.42843 | 9232 ft | 265 kts | 262° |
| 2026-04-16 14:27 | 51.66446 | 0.39916 | 8928 ft | 261 kts | 262° |
| 2026-04-16 14:27 | 51.66235 | 0.37059 | 8632 ft | 258 kts | 262° |
| 2026-04-16 14:28 | 51.66023 | 0.34193 | 8331 ft | 256 kts | 262° |
| 2026-04-16 14:28 | 51.65812 | 0.31352 | 8050 ft | 254 kts | 262° |
| 2026-04-16 14:28 | 51.65602 | 0.28539 | 7801 ft | 250 kts | 262° |
| 2026-04-16 14:28 | 51.65394 | 0.25779 | 7536 ft | 246 kts | 262° |
| 2026-04-16 14:29 | 51.65189 | 0.23066 | 7323 ft | 241 kts | 262° |
| 2026-04-16 14:29 | 51.64993 | 0.20425 | 7160 ft | 232 kts | 262° |
| 2026-04-16 14:29 | 51.64931 | 0.17858 | 7161 ft | 229 kts | 269° |
| 2026-04-16 14:29 | 51.64984 | 0.15301 | 7155 ft | 227 kts | 270° |
| 2026-04-16 14:30 | 51.65063 | 0.12757 | 7157 ft | 227 kts | 271° |
| 2026-04-16 14:30 | 51.65147 | 0.10222 | 7157 ft | 227 kts | 271° |
| 2026-04-16 14:30 | 51.65227 | 0.07702 | 7153 ft | 229 kts | 270° |
| 2026-04-16 14:30 | 51.65307 | 0.05133 | 7154 ft | 229 kts | 270° |
| 2026-04-16 14:31 | 51.65393 | 0.02571 | 7153 ft | 228 kts | 271° |
| 2026-04-16 14:31 | 51.65481 | 0.00022 | 7177 ft | 226 kts | 271° |
| 2026-04-16 14:31 | 51.65558 | -0.02434 | 7120 ft | 213 kts | 271° |
| 2026-04-16 14:31 | 51.65630 | -0.04795 | 7147 ft | 210 kts | 271° |
| 2026-04-16 14:32 | 51.65664 | -0.07142 | 7122 ft | 208 kts | 261° |
| 2026-04-16 14:32 | 51.65082 | -0.09191 | 6954 ft | 201 kts | 227° |
| 2026-04-16 14:32 | 51.63856 | -0.10257 | 6561 ft | 207 kts | 193° |
| 2026-04-16 14:32 | 51.62413 | -0.10364 | 6228 ft | 208 kts | 182° |
| 2026-04-16 14:33 | 51.60977 | -0.10280 | 5967 ft | 205 kts | 181° |
| 2026-04-16 14:33 | 51.59583 | -0.10166 | 5916 ft | 201 kts | 180° |
| 2026-04-16 14:33 | 51.58178 | -0.10073 | 5522 ft | 203 kts | 184° |
| 2026-04-16 14:33 | 51.56772 | -0.10239 | 5173 ft | 202 kts | 190° |
| 2026-04-16 14:34 | 51.55386 | -0.10499 | 4858 ft | 200 kts | 190° |
| 2026-04-16 14:34 | 51.54003 | -0.10802 | 4508 ft | 201 kts | 191° |
| 2026-04-16 14:34 | 51.52620 | -0.11099 | 4178 ft | 200 kts | 191° |
| 2026-04-16 14:34 | 51.51252 | -0.11378 | 3875 ft | 197 kts | 191° |
| 2026-04-16 14:35 | 51.50024 | -0.12201 | 3527 ft | 191 kts | 223° |
| 2026-04-16 14:35 | 51.49234 | -0.13914 | 3162 ft | 191 kts | 238° |
| 2026-04-16 14:35 | 51.48605 | -0.15738 | 2999 ft | 179 kts | 243° |
| 2026-04-16 14:35 | 51.48171 | -0.17501 | 2995 ft | 169 kts | 251° |
| 2026-04-16 14:36 | 51.47936 | -0.19356 | 2981 ft | 171 kts | 259° |
| 2026-04-16 14:36 | 51.47845 | -0.21273 | 2823 ft | 172 kts | 265° |
| 2026-04-16 14:36 | 51.47842 | -0.23200 | 2589 ft | 172 kts | 266° |
| 2026-04-16 14:36 | 51.47850 | -0.25111 | 2354 ft | 170 kts | 266° |
| 2026-04-16 14:37 | 51.47849 | -0.27013 | 2109 ft | 170 kts | 265° |
| 2026-04-16 14:37 | 51.47840 | -0.28888 | 1867 ft | 164 kts | 265° |
| 2026-04-16 14:37 | 51.47831 | -0.30660 | 1639 ft | 152 kts | 265° |
| 2026-04-16 14:37 | 51.47822 | -0.32321 | 1437 ft | 147 kts | 264° |
| 2026-04-16 14:38 | 51.47809 | -0.33937 | 1276 ft | 147 kts | 264° |
| 2026-04-16 14:38 | 51.47793 | -0.35575 | 1093 ft | 147 kts | 264° |
| 2026-04-16 14:38 | 51.47785 | -0.37211 | 852 ft | 145 kts | 265° |
| 2026-04-16 14:38 | 51.47783 | -0.38839 | 677 ft | 146 kts | 265° |
| 2026-04-16 14:39 | 51.47776 | -0.40460 | 513 ft | 144 kts | 265° |
| 2026-04-16 14:39 | 51.47772 | -0.42061 | 297 ft | 142 kts | 266° |
| 2026-04-16 14:39 | 51.47771 | -0.43660 | 109 ft | 143 kts | 266° |
| 2026-04-16 14:39 | 51.47761 | -0.45069 | 97 ft | 98 kts | 269° |
| 2026-04-16 14:40 | 51.47759 | -0.45814 | 95 ft | 41 kts | 269° |
| 2026-04-16 14:40 | 51.47758 | -0.46203 | 98 ft | 32 kts | 270° |
| 2026-04-16 14:40 | 51.47740 | -0.46560 | 101 ft | 32 kts | 255° |
| 2026-04-16 14:40 | 51.47667 | -0.46821 | 98 ft | 15 kts | 233° |
| 2026-04-16 14:41 | 51.47566 | -0.46914 | 98 ft | 19 kts | 190° |
| 2026-04-16 14:41 | 51.47450 | -0.46897 | 97 ft | 17 kts | 166° |
| 2026-04-16 14:41 | 51.47319 | -0.46867 | 94 ft | 21 kts | 178° |
| 2026-04-16 14:41 | 51.47162 | -0.46865 | 94 ft | 24 kts | 180° |
| 2026-04-16 14:42 | 51.47009 | -0.46863 | 94 ft | 16 kts | 179° |
| 2026-04-16 14:42 | 51.46886 | -0.46862 | 97 ft | 20 kts | 180° |
| 2026-04-16 14:42 | 51.46782 | -0.46861 | 97 ft | 8 kts | 179° |
| 2026-04-16 14:42 | 51.46747 | -0.46804 | 98 ft | 10 kts | 102° |
| 2026-04-16 14:43 | 51.46748 | -0.46674 | 98 ft | 13 kts | 88° |
| 2026-04-16 14:43 | 51.46749 | -0.46505 | 95 ft | 17 kts | 91° |
| 2026-04-16 14:43 | 51.46747 | -0.46295 | 98 ft | 21 kts | 90° |
| 2026-04-16 14:43 | 51.46748 | -0.46047 | 98 ft | 24 kts | 89° |
| 2026-04-16 14:44 | 51.46748 | -0.45767 | 98 ft | 26 kts | 89° |
| 2026-04-16 14:44 | 51.46750 | -0.45501 | 94 ft | 22 kts | 89° |
| 2026-04-16 14:44 | 51.46750 | -0.45241 | 95 ft | 23 kts | 90° |
| 2026-04-16 14:44 | 51.46751 | -0.45015 | 95 ft | 16 kts | 90° |
| 2026-04-16 14:45 | 51.46751 | -0.44907 | 95 ft | 7 kts | 89° |
| 2026-04-16 14:45 | 51.46769 | -0.44884 | 98 ft | 5 kts | 4° |
| 2026-04-16 14:45 | 51.46801 | -0.44879 | 95 ft | 5 kts | 360° |
| 2026-04-16 14:45 | 51.46828 | -0.44880 | 95 ft | 2 kts | 359° |
| 2026-04-16 14:46 | 51.46836 | -0.44880 | 95 ft | 1 kts | 359° |